createdAt,value
2017-08-10T00:02:32.564Z,100412.56
2017-08-10T00:05:33.902Z,100420.69
2017-08-10T00:08:35.316Z,100416.33
2017-08-10T00:11:36.754Z,100424.42
2017-08-10T00:14:38.859Z,100438.28
2017-08-10T00:17:40.667Z,100428.09
2017-08-10T00:20:41.982Z,100419.84
2017-08-10T00:23:43.423Z,100430.19
2017-08-10T00:26:44.837Z,100419.41
2017-08-10T00:29:46.944Z,100406.72
2017-08-10T00:32:48.321Z,100387.74
2017-08-10T00:35:49.725Z,100385.71
2017-08-10T00:38:51.097Z,100394.84
2017-08-10T00:41:52.496Z,100398.08
2017-08-10T00:44:55.043Z,100402.80
2017-08-10T00:48:03.290Z,100396.95
2017-08-10T00:51:04.667Z,100398.08
2017-08-10T00:54:05.994Z,100402.91
2017-08-10T00:57:07.372Z,100408.39
2017-08-10T01:00:09.490Z,100399.50
2017-08-10T01:03:10.927Z,100400.80
2017-08-10T01:06:12.610Z,100403.34
2017-08-10T01:09:14.134Z,100406.87
2017-08-10T01:12:15.634Z,100404.15
2017-08-10T01:15:17.020Z,100401.55
2017-08-10T01:18:18.474Z,100405.50
2017-08-10T01:21:19.802Z,100394.41
2017-08-10T01:24:21.966Z,100383.78
2017-08-10T01:27:24.062Z,100385.66
2017-08-10T01:30:25.569Z,100379.53
2017-08-10T01:33:26.957Z,100384.04
2017-08-10T01:36:28.379Z,100394.25
2017-08-10T01:39:30.321Z,100396.69
2017-08-10T01:42:31.825Z,100398.41
2017-08-10T01:45:33.987Z,100409.97
2017-08-10T01:48:36.128Z,100410.21
2017-08-10T01:51:37.554Z,100405.38
2017-08-10T01:54:38.963Z,100402.95
2017-08-10T01:57:40.427Z,100401.48
2017-08-10T02:00:41.800Z,100406.59
2017-08-10T02:03:43.210Z,100406.36
2017-08-10T02:06:45.551Z,100407.08
2017-08-10T02:09:47.038Z,100411.53
2017-08-10T02:12:49.182Z,100410.14
2017-08-10T02:15:50.578Z,100413.27
2017-08-10T02:18:51.943Z,100413.78
2017-08-10T02:21:53.395Z,100403.68
2017-08-10T02:24:54.798Z,100409.16
2017-08-10T02:27:56.368Z,100402.05
2017-08-10T02:30:58.502Z,100415.98
2017-08-10T02:33:59.923Z,100423.37
2017-08-10T02:37:01.270Z,100418.97
2017-08-10T02:40:02.728Z,100417.33
2017-08-10T02:43:04.083Z,100415.58
2017-08-10T02:46:05.429Z,100419.60
2017-08-10T02:49:06.807Z,100426.66
2017-08-10T02:52:08.298Z,100440.95
2017-08-10T02:55:10.611Z,100440.97
2017-08-10T02:58:11.980Z,100447.20
2017-08-10T03:01:13.671Z,100449.26
2017-08-10T03:04:15.771Z,100458.59
2017-08-10T03:07:17.123Z,100455.45
2017-08-10T03:10:18.544Z,100464.30
2017-08-10T03:13:19.923Z,100477.45
2017-08-10T03:16:21.295Z,100485.89
2017-08-10T03:19:22.708Z,100483.22
2017-08-10T03:22:25.027Z,100466.84
2017-08-10T03:25:26.366Z,100469.89
2017-08-10T03:28:28.151Z,100471.89
2017-08-10T03:31:29.501Z,100465.45
2017-08-10T03:34:30.926Z,100460.13
2017-08-10T03:37:32.280Z,100464.76
2017-08-10T03:40:33.734Z,100467.72
2017-08-10T03:43:35.117Z,100467.40
2017-08-10T03:46:36.608Z,100484.94
2017-08-10T03:49:37.948Z,100479.35
2017-08-10T03:52:40.079Z,100476.25
2017-08-10T03:55:41.414Z,100478.97
2017-08-10T03:58:42.867Z,100481.27
2017-08-10T04:01:44.323Z,100474.99
2017-08-10T04:04:45.692Z,100465.83
2017-08-10T04:07:47.083Z,100462.45
2017-08-10T04:10:48.545Z,100454.94
2017-08-10T04:13:49.954Z,100450.11
2017-08-10T04:16:52.055Z,100461.25
2017-08-10T04:19:53.675Z,100468.55
2017-08-10T04:22:55.038Z,100475.14
2017-08-10T04:25:57.208Z,100483.52
2017-08-10T04:28:59.369Z,100492.22
2017-08-10T04:32:00.767Z,100479.73
2017-08-10T04:35:02.187Z,100479.12
2017-08-10T04:38:04.370Z,100476.27
2017-08-10T04:41:05.770Z,100476.38
2017-08-10T04:44:07.148Z,100471.62
2017-08-10T04:47:09.359Z,100476.79
2017-08-10T04:50:10.752Z,100475.41
2017-08-10T04:53:12.153Z,100477.09
2017-08-10T04:56:13.538Z,100482.25
2017-08-10T04:59:14.938Z,100479.52
2017-08-10T05:02:17.047Z,100475.88
2017-08-10T05:05:18.492Z,100467.80
2017-08-10T05:08:19.888Z,100457.69
2017-08-10T05:11:21.277Z,100462.61
2017-08-10T05:14:22.956Z,100454.59
2017-08-10T05:17:24.238Z,100452.25
2017-08-10T05:20:25.610Z,100452.42
2017-08-10T05:23:27.719Z,100464.47
2017-08-10T05:26:29.078Z,100453.86
2017-08-10T05:29:30.405Z,100452.61
2017-08-10T05:32:31.771Z,100456.47
2017-08-10T05:35:33.111Z,100445.69
2017-08-10T05:38:34.474Z,100435.59
2017-08-10T05:41:35.800Z,100442.23
2017-08-10T05:44:37.120Z,100451.91
2017-08-10T05:47:39.209Z,100445.36
2017-08-10T05:50:40.576Z,100450.00
2017-08-10T05:53:41.943Z,100448.19
2017-08-10T05:56:43.294Z,100440.37
2017-08-10T05:59:44.678Z,100446.55
2017-08-10T06:02:46.047Z,100458.23
2017-08-10T06:05:47.443Z,100452.80
2017-08-10T06:08:48.820Z,100458.77
2017-08-10T06:11:50.916Z,100454.94
2017-08-10T06:14:52.250Z,100467.24
2017-08-10T06:17:53.583Z,100488.44
2017-08-10T06:20:55.677Z,100490.67
2017-08-10T06:23:57.006Z,100507.27
2017-08-10T06:26:59.104Z,100523.52
2017-08-10T06:30:00.444Z,100517.36
2017-08-10T06:33:01.814Z,100528.41
2017-08-10T06:36:03.275Z,100530.55
2017-08-10T06:39:04.635Z,100522.47
2017-08-10T06:42:05.970Z,100532.30
2017-08-10T06:45:07.536Z,100539.19
2017-08-10T06:48:08.903Z,100532.32
2017-08-10T06:51:10.223Z,100520.09
2017-08-10T06:54:11.564Z,100523.14
2017-08-10T06:57:12.915Z,100534.88
2017-08-10T07:00:14.307Z,100543.61
2017-08-10T07:03:15.675Z,100565.05
2017-08-10T07:06:17.746Z,100560.69
2017-08-10T07:09:19.833Z,100549.05
2017-08-10T07:12:21.186Z,100554.73
2017-08-10T07:15:22.564Z,100569.00
2017-08-10T07:18:23.894Z,100575.16
2017-08-10T07:21:25.257Z,100574.64
2017-08-10T07:24:26.580Z,100571.58
2017-08-10T07:27:27.967Z,100564.69
2017-08-10T07:30:29.432Z,100568.89
2017-08-10T07:33:30.766Z,100546.67
2017-08-10T07:36:32.154Z,100545.24
2017-08-10T07:39:33.590Z,100557.28
2017-08-10T07:42:34.960Z,100557.48
2017-08-10T07:45:37.037Z,100566.05
2017-08-10T07:48:39.128Z,100561.94
2017-08-10T07:51:40.480Z,100544.76
2017-08-10T07:54:41.867Z,100544.45
2017-08-10T07:57:43.241Z,100552.27
2017-08-10T08:00:44.560Z,100553.48
2017-08-10T08:03:45.956Z,100566.27
2017-08-10T08:06:48.051Z,100561.08
2017-08-10T08:09:49.409Z,100557.23
2017-08-10T08:12:50.912Z,100567.41
2017-08-10T08:15:52.248Z,100557.84
2017-08-10T08:18:53.586Z,100560.84
2017-08-10T08:21:54.950Z,100566.63
2017-08-10T08:24:56.272Z,100566.98
2017-08-10T08:27:57.615Z,100569.05
2017-08-10T08:30:58.956Z,100549.72
2017-08-10T08:34:00.333Z,100542.34
2017-08-10T08:37:01.670Z,100547.44
2017-08-10T08:40:03.010Z,100555.27
2017-08-10T08:43:04.335Z,100560.31
2017-08-10T08:46:06.481Z,100562.37
2017-08-10T08:49:07.824Z,100553.00
2017-08-10T08:52:09.298Z,100552.61
2017-08-10T08:55:11.344Z,100553.30
2017-08-10T08:58:12.727Z,100541.09
2017-08-10T09:01:14.796Z,100550.69
2017-08-10T09:04:16.200Z,100562.11
2017-08-10T09:07:17.508Z,100587.27
2017-08-10T09:10:18.851Z,100590.47
2017-08-10T09:13:20.188Z,100594.03
2017-08-10T09:16:22.347Z,100601.41
2017-08-10T09:19:23.813Z,100605.95
2017-08-10T09:22:25.860Z,100604.28
2017-08-10T09:25:27.202Z,100597.67
2017-08-10T09:28:28.543Z,100594.42
2017-08-10T09:31:29.913Z,100580.23
2017-08-10T09:34:31.271Z,100580.69
2017-08-10T09:37:33.393Z,100576.97
2017-08-10T09:40:34.753Z,100585.20
2017-08-10T09:43:36.146Z,100588.92
2017-08-10T09:46:38.309Z,100586.03
2017-08-10T09:49:40.397Z,100583.61
2017-08-10T09:52:41.755Z,100578.64
2017-08-10T09:55:43.116Z,100576.33
2017-08-10T09:58:44.527Z,100578.06
2017-08-10T10:01:45.873Z,100576.80
2017-08-10T10:04:47.968Z,100590.53
2017-08-10T10:07:49.576Z,100587.41
2017-08-10T10:10:50.941Z,100586.48
2017-08-10T10:13:53.287Z,100592.76
2017-08-10T10:16:54.654Z,100587.67
2017-08-10T10:19:56.781Z,100573.63
2017-08-10T10:22:58.127Z,100559.45
2017-08-10T10:25:59.498Z,100551.69
2017-08-10T10:29:00.816Z,100571.63
2017-08-10T10:32:02.187Z,100592.67
2017-08-10T10:35:03.536Z,100590.11
2017-08-10T10:38:04.884Z,100609.87
2017-08-10T10:41:06.371Z,100611.52
2017-08-10T10:44:07.730Z,100597.41
2017-08-10T10:47:09.088Z,100593.52
2017-08-10T10:50:11.150Z,100589.91
2017-08-10T10:53:12.522Z,100589.00
2017-08-10T10:56:13.852Z,100586.14
2017-08-10T10:59:15.190Z,100590.88
2017-08-10T11:02:16.541Z,100606.91
2017-08-10T11:05:17.922Z,100604.26
2017-08-10T11:08:20.135Z,100595.38
2017-08-10T11:11:22.679Z,100598.47
2017-08-10T11:14:24.801Z,100609.44
2017-08-10T11:17:26.136Z,100617.28
2017-08-10T11:20:27.489Z,100611.14
2017-08-10T11:23:28.841Z,100626.16
2017-08-10T11:26:30.180Z,100620.45
2017-08-10T11:29:31.524Z,100611.54
2017-08-10T11:32:32.966Z,100612.45
2017-08-10T11:35:34.326Z,100613.64
2017-08-10T11:38:35.664Z,100615.90
2017-08-10T11:41:37.036Z,100613.63
2017-08-10T11:44:38.457Z,100619.77
2017-08-10T11:47:39.923Z,100607.16
2017-08-10T11:50:41.373Z,100617.52
2017-08-10T11:53:42.704Z,100620.73
2017-08-10T11:56:44.777Z,100608.69
2017-08-10T11:59:48.055Z,100604.38
2017-08-10T12:02:49.439Z,100599.81
2017-08-10T12:05:50.780Z,100602.75
2017-08-10T12:08:52.153Z,100623.06
2017-08-10T12:11:53.611Z,100621.71
2017-08-10T12:14:54.976Z,100616.84
2017-08-10T12:17:56.371Z,100609.16
2017-08-10T12:20:58.565Z,100590.45
2017-08-10T12:23:59.956Z,100590.49
2017-08-10T12:27:01.350Z,100596.22
2017-08-10T12:30:02.702Z,100596.63
2017-08-10T12:33:04.155Z,100605.55
2017-08-10T12:36:05.484Z,100607.94
2017-08-10T12:39:06.850Z,100598.83
2017-08-10T12:42:09.003Z,100593.44
2017-08-10T12:45:11.143Z,100591.09
2017-08-10T12:48:12.556Z,100593.88
2017-08-10T12:51:14.279Z,100602.43
2017-08-10T12:54:16.356Z,100606.31
2017-08-10T12:57:18.499Z,100609.72
2017-08-10T13:00:19.847Z,100619.98
2017-08-10T13:03:21.239Z,100625.41
2017-08-10T13:06:22.625Z,100621.59
2017-08-10T13:09:24.021Z,100620.59
2017-08-10T13:12:26.147Z,100619.95
2017-08-10T13:15:27.487Z,100595.86
2017-08-10T13:18:28.921Z,100592.73
2017-08-10T13:21:30.303Z,100582.70
2017-08-10T13:24:31.683Z,100588.45
2017-08-10T13:27:33.150Z,100606.55
2017-08-10T13:30:36.308Z,100608.88
2017-08-10T13:33:37.800Z,100609.99
2017-08-10T13:36:42.809Z,100599.42
2017-08-10T13:39:44.908Z,100592.09
2017-08-10T13:42:46.282Z,100585.91
2017-08-10T13:45:47.686Z,100579.45
2017-08-10T13:48:49.102Z,100593.16
2017-08-10T13:51:50.470Z,100592.64
2017-08-10T13:54:51.858Z,100592.04
2017-08-10T13:57:53.980Z,100573.95
2017-08-10T14:00:55.304Z,100556.73
2017-08-10T14:03:56.673Z,100559.50
2017-08-10T14:06:58.205Z,100550.31
2017-08-10T14:09:59.602Z,100558.23
2017-08-10T14:13:00.997Z,100554.19
2017-08-10T14:16:02.583Z,100556.05
2017-08-10T14:19:04.037Z,100553.20
2017-08-10T14:22:05.372Z,100546.67
2017-08-10T14:25:07.468Z,100548.04
2017-08-10T14:28:08.807Z,100546.47
2017-08-10T14:31:10.187Z,100546.59
2017-08-10T14:34:11.559Z,100556.36
2017-08-10T14:37:12.896Z,100565.95
2017-08-10T14:40:14.300Z,100564.09
2017-08-10T14:43:16.432Z,100570.42
2017-08-10T14:46:17.814Z,100566.20
2017-08-10T14:49:19.915Z,100559.66
2017-08-10T14:52:21.250Z,100551.55
2017-08-10T14:55:22.613Z,100544.35
2017-08-10T14:58:23.964Z,100549.60
2017-08-10T15:01:25.334Z,100559.85
2017-08-10T15:04:26.675Z,100551.90
2017-08-10T15:07:28.130Z,100550.86
2017-08-10T15:10:29.638Z,100548.73
2017-08-10T15:13:31.291Z,100554.39
2017-08-10T15:16:32.665Z,100550.16
2017-08-10T15:19:34.094Z,100558.32
2017-08-10T15:22:36.249Z,100552.22
2017-08-10T15:25:38.228Z,100560.80
2017-08-10T15:28:39.960Z,100556.37
2017-08-10T15:31:41.320Z,100554.31
2017-08-10T15:34:42.645Z,100545.72
2017-08-10T15:37:44.011Z,100542.52
2017-08-10T15:40:45.413Z,100553.02
2017-08-10T15:43:46.753Z,100553.62
2017-08-10T15:46:48.211Z,100553.60
2017-08-10T15:49:49.535Z,100546.01
2017-08-10T15:52:51.681Z,100546.83
2017-08-10T15:55:53.119Z,100548.61
2017-08-10T15:58:54.469Z,100548.55
2017-08-10T16:01:56.199Z,100542.82
2017-08-10T16:04:57.698Z,100547.66
2017-08-10T16:07:59.138Z,100530.93
2017-08-10T16:11:00.530Z,100536.64
2017-08-10T16:14:02.699Z,100533.72
2017-08-10T16:17:04.838Z,100540.70
2017-08-10T16:20:06.367Z,100534.67
2017-08-10T16:23:07.747Z,100542.23
2017-08-10T16:26:09.159Z,100534.14
2017-08-10T16:29:10.848Z,100535.14
2017-08-10T16:32:12.283Z,100526.61
2017-08-10T16:35:13.719Z,100535.13
2017-08-10T16:38:31.116Z,100536.84
2017-08-10T16:41:33.547Z,100530.74
2017-08-10T16:44:35.304Z,100538.00
2017-08-10T16:47:37.465Z,100531.86
2017-08-10T16:50:41.383Z,100528.71
2017-08-10T16:53:42.763Z,100530.39
2017-08-10T16:56:44.223Z,100527.11
2017-08-10T16:59:45.983Z,100529.26
2017-08-10T17:02:47.427Z,100529.47
2017-08-10T17:05:48.827Z,100531.84
2017-08-10T17:08:52.399Z,100533.14
2017-08-10T17:11:54.270Z,100544.70
2017-08-10T17:14:56.348Z,100540.91
2017-08-10T17:17:57.771Z,100545.28
2017-08-10T17:21:00.002Z,100548.00
2017-08-10T17:24:01.475Z,100541.28
2017-08-10T17:27:02.967Z,100528.86
2017-08-10T17:30:04.418Z,100525.66
2017-08-10T17:33:05.911Z,100537.03
2017-08-10T17:36:08.467Z,100535.29
2017-08-10T17:39:10.403Z,100537.50
2017-08-10T17:42:14.098Z,100541.27
2017-08-10T17:45:15.739Z,100533.16
2017-08-10T17:48:18.302Z,100524.92
2017-08-10T17:51:19.738Z,100513.79
2017-08-10T17:54:21.119Z,100513.50
2017-08-10T17:57:24.503Z,100509.61
2017-08-10T18:00:26.442Z,100500.38
2017-08-10T18:03:28.775Z,100526.08
2017-08-10T18:06:30.185Z,100526.59
2017-08-10T18:09:32.320Z,100518.59
2017-08-10T18:12:34.727Z,100502.63
2017-08-10T18:15:37.358Z,100514.52
2017-08-10T18:18:38.843Z,100516.16
2017-08-10T18:21:41.072Z,100517.88
2017-08-10T18:24:42.950Z,100521.86
2017-08-10T18:27:45.085Z,100519.76
2017-08-10T18:30:47.546Z,100521.83
2017-08-10T18:33:48.997Z,100510.94
2017-08-10T18:36:50.434Z,100519.86
2017-08-10T18:39:52.879Z,100523.77
2017-08-10T18:42:55.272Z,100532.67
2017-08-10T18:45:56.750Z,100525.53
2017-08-10T18:48:58.309Z,100528.11
2017-08-10T18:51:59.974Z,100522.38
2017-08-10T18:55:01.539Z,100519.22
2017-08-10T18:58:02.906Z,100531.02
2017-08-10T19:01:04.542Z,100509.67
2017-08-10T19:04:05.972Z,100509.09
2017-08-10T19:07:07.407Z,100511.02
2017-08-10T19:10:09.740Z,100517.34
2017-08-10T19:13:11.296Z,100526.92
2017-08-10T19:16:12.972Z,100527.12
2017-08-10T19:19:14.743Z,100525.22
2017-08-10T19:22:16.971Z,100522.08
2017-08-10T19:25:18.364Z,100522.45
2017-08-10T19:28:19.890Z,100519.63
2017-08-10T19:31:21.287Z,100523.11
2017-08-10T19:34:23.742Z,100527.88
2017-08-10T19:37:25.366Z,100522.84
2017-08-10T19:40:26.795Z,100520.31
2017-08-10T19:43:29.954Z,100522.78
2017-08-10T19:46:31.699Z,100518.67
2017-08-10T19:49:33.128Z,100506.30
2017-08-10T19:52:35.551Z,100488.75
2017-08-10T19:55:37.096Z,100484.50
2017-08-10T19:58:38.944Z,100489.34
2017-08-10T20:01:41.237Z,100494.30
2017-08-10T20:04:42.743Z,100519.34
2017-08-10T20:07:44.163Z,100508.79
2017-08-10T20:10:46.478Z,100500.09
2017-08-10T20:13:47.934Z,100507.64
2017-08-10T20:16:49.300Z,100519.25
2017-08-10T20:19:50.739Z,100513.91
2017-08-10T20:22:52.326Z,100527.52
2017-08-10T20:25:54.493Z,100533.55
2017-08-10T20:28:56.704Z,100535.91
2017-08-10T20:31:58.614Z,100540.81
2017-08-10T20:35:00.002Z,100525.52
2017-08-10T20:38:02.129Z,100525.88
2017-08-10T20:41:03.570Z,100528.63
2017-08-10T20:44:05.051Z,100534.75
2017-08-10T20:47:07.285Z,100534.11
2017-08-10T20:50:08.766Z,100546.30
2017-08-10T20:53:10.187Z,100559.88
2017-08-10T20:56:11.760Z,100551.09
2017-08-10T20:59:13.225Z,100543.31
2017-08-10T21:02:14.754Z,100536.73
2017-08-10T21:05:16.266Z,100528.58
2017-08-10T21:08:18.551Z,100531.67
2017-08-10T21:11:20.060Z,100529.33
2017-08-10T21:14:21.646Z,100532.41
2017-08-10T21:17:23.851Z,100535.30
2017-08-10T21:20:25.464Z,100539.99
2017-08-10T21:23:27.628Z,100532.34
2017-08-10T21:26:29.927Z,100535.03
2017-08-10T21:29:31.369Z,100545.55
2017-08-10T21:32:33.599Z,100539.83
2017-08-10T21:35:35.046Z,100541.13
2017-08-10T21:38:36.539Z,100541.59
2017-08-10T21:41:38.072Z,100533.69
2017-08-10T21:44:40.372Z,100530.09
2017-08-10T21:47:41.804Z,100524.43
2017-08-10T21:50:43.987Z,100522.45
2017-08-10T21:53:46.214Z,100522.22
2017-08-10T21:56:47.620Z,100524.00
2017-08-10T21:59:49.086Z,100521.34
2017-08-10T22:02:50.486Z,100503.41
2017-08-10T22:05:51.970Z,100495.42
2017-08-10T22:08:54.164Z,100496.77
2017-08-10T22:11:55.789Z,100484.14
2017-08-10T22:14:58.032Z,100477.05
2017-08-10T22:17:59.450Z,100495.83
2017-08-10T22:21:01.068Z,100504.75
2017-08-10T22:24:04.004Z,100501.48
2017-08-10T22:27:05.444Z,100496.30
2017-08-10T22:30:07.476Z,100504.30
2017-08-10T22:33:09.126Z,100505.81
2017-08-10T22:36:11.287Z,100514.48
2017-08-10T22:39:12.712Z,100511.69
2017-08-10T22:42:14.139Z,100503.27
2017-08-10T22:45:15.999Z,100505.18
2017-08-10T22:48:17.484Z,100504.84
2017-08-10T22:51:18.935Z,100495.88
2017-08-10T22:54:27.467Z,100480.93
2017-08-10T22:57:28.828Z,100483.39
2017-08-10T23:00:30.252Z,100476.14
2017-08-10T23:03:31.623Z,100471.55
2017-08-10T23:06:33.031Z,100471.44
2017-08-10T23:09:34.461Z,100468.58
2017-08-10T23:12:36.622Z,100472.74
2017-08-10T23:15:38.890Z,100472.45
2017-08-10T23:18:41.029Z,100476.23
2017-08-10T23:21:42.422Z,100471.98
2017-08-10T23:24:44.178Z,100468.35
2017-08-10T23:27:46.366Z,100462.34
2017-08-10T23:30:47.767Z,100469.05
2017-08-10T23:33:49.302Z,100467.61
2017-08-10T23:36:51.174Z,100453.44
2017-08-10T23:39:53.331Z,100457.57
2017-08-10T23:42:54.711Z,100459.68
2017-08-10T23:45:56.147Z,100455.70
2017-08-10T23:48:57.526Z,100460.23
2017-08-10T23:51:58.950Z,100446.52
2017-08-10T23:55:00.335Z,100442.69
2017-08-10T23:58:02.501Z,100437.97
